createdAt,value
2019-02-06T00:01:22.525Z,17.73
2019-02-06T00:03:49.837Z,18.62
2019-02-06T00:06:17.077Z,19.07
2019-02-06T00:08:44.381Z,16.25
2019-02-06T00:11:11.997Z,19.32
2019-02-06T00:13:39.494Z,15.48
2019-02-06T00:16:06.953Z,15.63
2019-02-06T00:18:34.313Z,15.25
2019-02-06T00:21:01.709Z,17.48
2019-02-06T00:23:29.027Z,16.85
2019-02-06T00:25:56.219Z,16.30
2019-02-06T00:28:23.522Z,15.95
2019-02-06T00:30:51.168Z,16.45
2019-02-06T00:33:18.369Z,18.85
2019-02-06T00:35:45.573Z,16.32
2019-02-06T00:38:13.024Z,16.35
2019-02-06T00:40:40.256Z,16.80
2019-02-06T00:43:07.591Z,14.28
2019-02-06T00:45:34.928Z,16.40
2019-02-06T00:48:02.545Z,17.42
2019-02-06T00:50:29.896Z,16.67
2019-02-06T00:52:57.232Z,14.47
2019-02-06T00:55:24.543Z,16.42
2019-02-06T00:57:51.768Z,16.02
2019-02-06T01:00:21.308Z,16.15
2019-02-06T01:02:49.313Z,16.85
2019-02-06T01:05:17.025Z,16.02
2019-02-06T01:07:44.366Z,15.05
2019-02-06T01:10:11.924Z,17.02
2019-02-06T01:12:39.240Z,15.35
2019-02-06T01:15:07.988Z,16.27
2019-02-06T01:17:35.416Z,13.90
2019-02-06T01:20:03.532Z,17.32
2019-02-06T01:22:31.356Z,16.52
2019-02-06T01:24:58.585Z,14.13
2019-02-06T01:27:25.896Z,15.18
2019-02-06T01:29:53.138Z,15.13
2019-02-06T01:32:20.542Z,14.43
2019-02-06T01:34:47.880Z,15.03
2019-02-06T01:37:15.083Z,12.18
2019-02-06T01:39:42.316Z,15.13
2019-02-06T01:42:10.015Z,13.30
2019-02-06T01:44:37.326Z,13.88
2019-02-06T01:47:04.642Z,14.23
2019-02-06T01:49:31.947Z,13.95
2019-02-06T01:51:59.271Z,15.53
2019-02-06T01:54:26.569Z,15.32
2019-02-06T01:56:53.811Z,12.23
2019-02-06T01:59:21.173Z,13.50
2019-02-06T02:01:48.721Z,13.93
2019-02-06T02:04:16.045Z,13.58
2019-02-06T02:06:43.285Z,13.80
2019-02-06T02:09:18.995Z,14.83
2019-02-06T02:11:46.522Z,12.40
2019-02-06T02:14:13.719Z,15.90
2019-02-06T02:16:41.442Z,15.95
2019-02-06T02:19:08.747Z,17.90
2019-02-06T02:21:36.003Z,17.40
2019-02-06T02:24:03.302Z,14.90
2019-02-06T02:26:30.520Z,15.10
2019-02-06T02:28:57.823Z,14.78
2019-02-06T02:31:25.157Z,20.92
2019-02-06T02:33:52.463Z,14.43
2019-02-06T02:36:19.821Z,14.73
2019-02-06T02:38:47.149Z,17.92
2019-02-06T02:41:14.383Z,19.57
2019-02-06T02:43:41.727Z,14.00
2019-02-06T02:46:09.021Z,16.57
2019-02-06T02:48:36.407Z,17.67
2019-02-06T02:51:03.904Z,14.45
2019-02-06T02:53:31.526Z,15.80
2019-02-06T02:55:58.815Z,14.93
2019-02-06T02:58:26.142Z,16.50
2019-02-06T03:01:11.081Z,15.43
2019-02-06T03:04:04.137Z,17.65
2019-02-06T03:06:31.553Z,14.25
2019-02-06T03:08:58.975Z,15.70
2019-02-06T03:11:26.367Z,20.40
2019-02-06T03:13:53.685Z,15.68
2019-02-06T03:16:21.126Z,18.20
2019-02-06T03:18:48.635Z,16.95
2019-02-06T03:21:15.859Z,21.25
2019-02-06T03:23:43.284Z,15.40
2019-02-06T03:26:10.517Z,17.25
2019-02-06T03:28:37.825Z,16.20
2019-02-06T03:31:05.037Z,16.10
2019-02-06T03:33:32.339Z,16.55
2019-02-06T03:35:59.952Z,22.45
2019-02-06T03:38:27.193Z,14.20
2019-02-06T03:40:54.618Z,20.90
2019-02-06T03:43:21.840Z,16.57
2019-02-06T03:45:49.153Z,16.87
2019-02-06T03:48:16.511Z,18.27
2019-02-06T03:50:43.811Z,18.48
2019-02-06T03:53:11.187Z,20.65
2019-02-06T03:55:38.811Z,16.95
2019-02-06T03:58:06.113Z,16.87
2019-02-06T04:00:33.435Z,20.17
2019-02-06T04:03:00.643Z,8.73
2019-02-06T04:05:27.973Z,18.52
2019-02-06T04:07:55.269Z,17.17
2019-02-06T04:10:22.511Z,13.30
2019-02-06T04:12:49.920Z,12.53
2019-02-06T04:15:17.231Z,15.72
2019-02-06T04:17:44.428Z,17.02
2019-02-06T04:20:11.796Z,19.52
2019-02-06T04:22:39.119Z,17.42
2019-02-06T04:25:06.609Z,17.50
2019-02-06T04:27:33.849Z,18.32
2019-02-06T04:30:01.092Z,16.90
2019-02-06T04:32:28.722Z,19.30
2019-02-06T04:34:56.161Z,18.48
2019-02-06T04:37:23.453Z,17.75
2019-02-06T04:39:50.787Z,18.60
2019-02-06T04:42:18.090Z,17.65
2019-02-06T04:44:45.425Z,18.95
2019-02-06T04:47:12.748Z,20.27
2019-02-06T04:49:40.353Z,16.27
2019-02-06T04:52:07.607Z,17.05
2019-02-06T04:54:34.951Z,22.42
2019-02-06T04:57:02.329Z,19.32
2019-02-06T04:59:29.542Z,19.15
2019-02-06T05:01:56.896Z,21.23
2019-02-06T05:04:24.198Z,23.05
2019-02-06T05:06:51.404Z,17.25
2019-02-06T05:09:19.012Z,17.57
2019-02-06T05:11:46.222Z,18.67
2019-02-06T05:14:13.410Z,20.32
2019-02-06T05:16:40.750Z,21.05
2019-02-06T05:19:07.974Z,19.60
2019-02-06T05:21:35.194Z,19.05
2019-02-06T05:24:02.532Z,18.45
2019-02-06T05:26:29.744Z,20.57
2019-02-06T05:28:56.964Z,18.57
2019-02-06T05:31:24.285Z,23.50
2019-02-06T05:33:51.579Z,16.85
2019-02-06T05:36:18.876Z,16.37
2019-02-06T05:38:46.109Z,19.23
2019-02-06T05:41:13.525Z,9.65
2019-02-06T05:43:40.851Z,17.12
2019-02-06T05:46:08.539Z,17.85
2019-02-06T05:48:35.814Z,18.02
2019-02-06T05:51:03.139Z,21.70
2019-02-06T05:53:30.577Z,21.15
2019-02-06T05:55:57.898Z,22.67
2019-02-06T05:58:25.141Z,24.98
2019-02-06T06:00:52.547Z,17.95
2019-02-06T06:03:19.835Z,18.17
2019-02-06T06:05:47.591Z,21.95
2019-02-06T06:08:14.895Z,13.98
2019-02-06T06:10:42.257Z,14.00
2019-02-06T06:13:09.554Z,25.25
2019-02-06T06:15:36.779Z,22.10
2019-02-06T06:18:04.130Z,20.70
2019-02-06T06:20:31.465Z,19.55
2019-02-06T06:22:58.788Z,17.73
2019-02-06T06:25:26.523Z,14.43
2019-02-06T06:27:53.849Z,20.05
2019-02-06T06:30:21.229Z,11.75
2019-02-06T06:32:48.542Z,19.02
2019-02-06T06:35:15.883Z,21.45
2019-02-06T06:37:43.277Z,21.15
2019-02-06T06:40:16.400Z,17.90
2019-02-06T06:42:44.131Z,19.85
2019-02-06T06:45:13.746Z,21.45
2019-02-06T06:47:41.077Z,20.50
2019-02-06T06:50:11.116Z,20.65
2019-02-06T06:52:38.345Z,17.45
2019-02-06T06:55:05.895Z,17.17
2019-02-06T06:57:33.119Z,20.95
2019-02-06T07:00:01.555Z,21.77
2019-02-06T07:02:28.889Z,22.80
2019-02-06T07:04:56.103Z,18.90
2019-02-06T07:07:23.431Z,19.42
2019-02-06T07:09:50.645Z,15.43
2019-02-06T07:12:17.925Z,18.60
2019-02-06T07:14:45.130Z,13.90
2019-02-06T07:17:12.741Z,19.57
2019-02-06T07:19:39.981Z,16.17
2019-02-06T07:22:07.220Z,21.23
2019-02-06T07:24:34.595Z,20.75
2019-02-06T07:27:01.933Z,19.75
2019-02-06T07:29:29.145Z,20.23
2019-02-06T07:31:56.465Z,16.37
2019-02-06T07:34:23.768Z,16.82
2019-02-06T07:36:51.413Z,17.73
2019-02-06T07:39:18.800Z,17.17
2019-02-06T07:41:46.121Z,13.18
2019-02-06T07:44:13.590Z,17.60
2019-02-06T07:46:40.977Z,16.42
2019-02-06T07:49:08.193Z,18.50
2019-02-06T07:51:35.389Z,16.97
2019-02-06T07:54:02.997Z,20.05
2019-02-06T07:56:30.203Z,15.28
2019-02-06T07:58:57.472Z,17.80
2019-02-06T08:01:24.821Z,15.68
2019-02-06T08:03:52.233Z,16.62
2019-02-06T08:06:19.561Z,14.07
2019-02-06T08:08:46.899Z,14.98
2019-02-06T08:11:14.239Z,16.42
2019-02-06T08:13:41.873Z,15.28
2019-02-06T08:16:09.294Z,16.27
2019-02-06T08:18:36.604Z,18.80
2019-02-06T08:21:03.864Z,19.30
2019-02-06T08:23:31.191Z,18.05
2019-02-06T08:25:58.564Z,13.85
2019-02-06T08:28:25.904Z,18.80
2019-02-06T08:30:53.556Z,17.98
2019-02-06T08:33:20.783Z,23.10
2019-02-06T08:35:48.404Z,18.32
2019-02-06T08:38:15.743Z,19.40
2019-02-06T08:40:43.164Z,15.32
2019-02-06T08:43:10.521Z,20.25
2019-02-06T08:45:37.859Z,15.20
2019-02-06T08:48:05.060Z,18.82
2019-02-06T08:50:32.505Z,19.82
2019-02-06T08:52:59.925Z,17.45
2019-02-06T08:55:28.641Z,15.63
2019-02-06T08:57:55.960Z,17.67
2019-02-06T09:00:28.676Z,15.85
2019-02-06T09:02:56.074Z,15.15
2019-02-06T09:05:23.910Z,17.77
2019-02-06T09:07:51.245Z,19.20
2019-02-06T09:10:20.053Z,13.05
2019-02-06T09:12:47.266Z,18.23
2019-02-06T09:15:14.731Z,23.57
2019-02-06T09:17:43.297Z,17.17
2019-02-06T09:20:13.270Z,17.17
2019-02-06T09:22:40.896Z,16.45
2019-02-06T09:25:09.244Z,15.95
2019-02-06T09:27:36.602Z,17.27
2019-02-06T09:30:04.865Z,17.60
2019-02-06T09:32:32.166Z,15.30
2019-02-06T09:34:59.483Z,19.75
2019-02-06T09:37:26.770Z,16.32
2019-02-06T09:39:54.002Z,16.73
2019-02-06T09:42:21.514Z,20.82
2019-02-06T09:44:48.828Z,13.90
2019-02-06T09:47:16.179Z,19.20
2019-02-06T09:49:43.413Z,14.53
2019-02-06T09:52:10.724Z,18.55
2019-02-06T09:54:38.048Z,20.02
2019-02-06T09:57:05.368Z,17.35
2019-02-06T09:59:32.881Z,18.65
2019-02-06T10:02:00.189Z,15.53
2019-02-06T10:04:27.550Z,13.32
2019-02-06T10:06:54.986Z,14.45
2019-02-06T10:09:23.157Z,14.65
2019-02-06T10:11:51.576Z,15.72
2019-02-06T10:14:18.979Z,14.40
2019-02-06T10:16:46.283Z,15.48
2019-02-06T10:19:13.720Z,15.43
2019-02-06T10:21:41.078Z,14.18
2019-02-06T10:24:08.587Z,11.05
2019-02-06T10:26:35.930Z,12.03
2019-02-06T10:29:03.656Z,17.53
2019-02-06T10:31:33.613Z,19.15
2019-02-06T10:34:00.980Z,16.93
2019-02-06T10:36:28.219Z,15.20
2019-02-06T10:38:55.621Z,22.60
2019-02-06T10:41:22.950Z,18.13
2019-02-06T10:43:50.285Z,17.33
2019-02-06T10:46:18.244Z,14.23
2019-02-06T10:48:45.865Z,19.30
2019-02-06T10:51:13.660Z,16.30
2019-02-06T10:53:41.186Z,15.60
2019-02-06T10:56:08.530Z,13.23
2019-02-06T10:58:35.738Z,15.47
2019-02-06T11:01:03.889Z,17.23
2019-02-06T11:03:31.260Z,16.50
2019-02-06T11:05:58.688Z,16.80
2019-02-06T11:08:25.904Z,17.23
2019-02-06T11:10:53.367Z,18.63
2019-02-06T11:13:20.607Z,18.80
2019-02-06T11:15:47.934Z,15.10
2019-02-06T11:18:15.316Z,15.37
2019-02-06T11:20:42.648Z,12.00
2019-02-06T11:23:09.995Z,16.47
2019-02-06T11:25:37.296Z,19.20
2019-02-06T11:28:05.364Z,15.33
2019-02-06T11:30:33.290Z,15.13
2019-02-06T11:33:00.602Z,16.03
2019-02-06T11:35:27.809Z,15.13
2019-02-06T11:37:55.326Z,13.43
2019-02-06T11:40:22.949Z,14.23
2019-02-06T11:42:50.221Z,15.40
2019-02-06T11:45:19.914Z,14.60
2019-02-06T11:47:47.550Z,14.13
2019-02-06T11:50:16.641Z,13.10
2019-02-06T11:52:44.208Z,12.47
2019-02-06T11:55:14.346Z,12.83
2019-02-06T11:57:41.623Z,13.30
2019-02-06T12:00:12.924Z,15.50
2019-02-06T12:02:40.554Z,15.90
2019-02-06T12:05:08.214Z,13.80
2019-02-06T12:07:35.440Z,15.47
2019-02-06T12:10:10.043Z,12.00
2019-02-06T12:12:33.648Z,12.60
2019-02-06T12:15:01.009Z,13.17
2019-02-06T12:17:28.320Z,17.77
2019-02-06T12:19:55.651Z,13.53
2019-02-06T12:22:22.958Z,10.37
2019-02-06T12:24:50.431Z,13.63
2019-02-06T12:27:17.745Z,12.27
2019-02-06T12:29:44.982Z,14.33
2019-02-06T12:32:12.303Z,12.73
2019-02-06T12:34:39.620Z,15.50
2019-02-06T12:37:06.946Z,12.73
2019-02-06T12:39:34.760Z,16.10
2019-02-06T12:42:02.146Z,14.37
2019-02-06T12:44:29.390Z,12.93
2019-02-06T12:46:56.614Z,13.83
2019-02-06T12:49:23.834Z,13.20
2019-02-06T12:51:52.450Z,11.33
2019-02-06T12:54:20.050Z,13.03
2019-02-06T12:56:47.384Z,10.13
2019-02-06T12:59:14.608Z,14.13
2019-02-06T13:01:42.330Z,16.93
2019-02-06T13:04:09.645Z,14.23
2019-02-06T13:06:36.994Z,10.70
2019-02-06T13:09:07.330Z,7.50
2019-02-06T13:11:34.581Z,10.00
2019-02-06T13:14:01.906Z,7.90
2019-02-06T13:16:29.233Z,5.60
2019-02-06T13:18:56.569Z,6.10
2019-02-06T13:21:23.884Z,8.57
2019-02-06T13:23:51.196Z,7.67
2019-02-06T13:26:18.393Z,6.03
2019-02-06T13:28:45.621Z,8.50
2019-02-06T13:31:12.943Z,6.57
2019-02-06T13:33:40.256Z,8.67
2019-02-06T13:36:08.958Z,7.13
2019-02-06T13:38:36.560Z,4.80
2019-02-06T13:41:04.185Z,5.77
2019-02-06T13:43:31.486Z,6.40
2019-02-06T13:45:58.852Z,7.70
2019-02-06T13:48:26.171Z,8.77
2019-02-06T13:50:53.518Z,7.03
2019-02-06T13:53:20.848Z,7.23
2019-02-06T13:55:48.679Z,6.27
2019-02-06T13:58:20.285Z,6.83
2019-02-06T14:00:45.230Z,8.67
2019-02-06T14:03:12.435Z,5.33
2019-02-06T14:05:40.634Z,8.20
2019-02-06T14:08:10.446Z,9.07
2019-02-06T14:10:37.836Z,6.63
2019-02-06T14:13:05.213Z,6.20
2019-02-06T14:15:35.014Z,9.40
2019-02-06T14:18:02.243Z,6.33
2019-02-06T14:20:29.669Z,5.47
2019-02-06T14:23:03.006Z,6.00
2019-02-06T14:25:42.527Z,9.33
2019-02-06T14:28:46.040Z,5.87
2019-02-06T14:32:01.345Z,7.67
2019-02-06T14:35:10.421Z,9.50
2019-02-06T14:37:51.327Z,7.20
2019-02-06T14:40:48.493Z,5.93
2019-02-06T14:43:45.414Z,7.93
2019-02-06T14:47:02.684Z,9.77
2019-02-06T14:49:46.329Z,7.73
2019-02-06T14:52:45.590Z,6.67
2019-02-06T14:55:44.369Z,9.83
2019-02-06T14:58:58.223Z,11.70
2019-02-06T15:01:42.488Z,6.40
2019-02-06T15:04:29.576Z,7.27
2019-02-06T15:07:16.460Z,9.30
2019-02-06T15:10:08.486Z,8.10
2019-02-06T15:12:56.269Z,8.83
2019-02-06T15:15:49.320Z,8.37
2019-02-06T15:19:00.197Z,8.50
2019-02-06T15:22:15.352Z,9.07
2019-02-06T15:25:17.680Z,9.10
2019-02-06T15:28:38.696Z,10.63
2019-02-06T15:31:43.005Z,4.70
2019-02-06T15:34:46.137Z,9.73
2019-02-06T15:37:49.000Z,7.83
2019-02-06T15:40:51.368Z,8.03
2019-02-06T15:43:55.747Z,7.47
2019-02-06T15:46:51.581Z,7.90
2019-02-06T15:49:37.293Z,8.67
2019-02-06T15:52:49.371Z,8.50
2019-02-06T15:55:54.390Z,7.80
2019-02-06T15:59:05.247Z,10.37
2019-02-06T16:02:02.022Z,12.03
2019-02-06T16:05:21.984Z,8.50
2019-02-06T16:08:26.832Z,8.77
2019-02-06T16:11:41.990Z,9.53
2019-02-06T16:14:47.198Z,8.73
2019-02-06T16:18:06.809Z,6.87
2019-02-06T16:21:10.350Z,7.30
2019-02-06T16:24:02.546Z,9.23
2019-02-06T16:27:05.316Z,10.67
2019-02-06T16:30:00.311Z,10.37
2019-02-06T16:32:52.669Z,7.80
2019-02-06T16:36:17.188Z,9.53
2019-02-06T16:39:23.690Z,9.30
2019-02-06T16:42:42.896Z,8.37
2019-02-06T16:45:40.928Z,10.27
2019-02-06T16:48:45.630Z,7.57
2019-02-06T16:51:32.337Z,8.17
2019-02-06T16:54:43.181Z,5.53
2019-02-06T16:58:01.739Z,6.53
2019-02-06T17:01:09.895Z,5.90
2019-02-06T17:04:30.728Z,6.37
2019-02-06T17:07:45.962Z,8.93
2019-02-06T17:10:57.352Z,4.27
2019-02-06T17:13:38.959Z,7.27
2019-02-06T17:16:34.952Z,6.23
2019-02-06T17:19:52.911Z,6.40
2019-02-06T17:22:51.109Z,10.47
2019-02-06T17:26:03.184Z,13.47
2019-02-06T17:28:52.538Z,11.97
2019-02-06T17:31:46.541Z,12.93
2019-02-06T17:35:04.395Z,15.37
2019-02-06T17:38:22.315Z,13.80
2019-02-06T17:41:23.523Z,14.27
2019-02-06T17:44:27.493Z,13.50
2019-02-06T17:47:32.118Z,14.77
2019-02-06T17:50:33.205Z,13.43
2019-02-06T17:53:31.601Z,15.57
2019-02-06T17:55:58.823Z,15.93
2019-02-06T17:58:29.011Z,13.90
2019-02-06T18:01:09.157Z,15.27
2019-02-06T18:03:52.812Z,16.27
2019-02-06T18:06:20.131Z,13.73
2019-02-06T18:08:56.337Z,14.73
2019-02-06T18:11:16.663Z,16.47
2019-02-06T18:13:44.008Z,11.83
2019-02-06T18:16:21.067Z,11.47
2019-02-06T18:18:40.508Z,13.43
2019-02-06T18:21:08.047Z,18.03
2019-02-06T18:23:35.375Z,17.13
2019-02-06T18:26:02.999Z,14.23
2019-02-06T18:28:30.498Z,14.00
2019-02-06T18:30:58.002Z,12.58
2019-02-06T18:33:26.664Z,13.13
2019-02-06T18:35:54.065Z,11.97
2019-02-06T18:38:21.368Z,13.07
2019-02-06T18:40:48.731Z,11.60
2019-02-06T18:43:16.207Z,10.33
2019-02-06T18:45:43.518Z,10.17
2019-02-06T18:48:10.854Z,12.90
2019-02-06T18:50:38.846Z,10.87
2019-02-06T18:53:06.675Z,9.83
2019-02-06T18:55:34.438Z,14.57
2019-02-06T18:58:01.907Z,14.63
2019-02-06T19:00:32.274Z,18.23
2019-02-06T19:03:00.775Z,16.37
2019-02-06T19:05:31.330Z,16.37
2019-02-06T19:07:58.774Z,16.47
2019-02-06T19:10:26.116Z,15.47
2019-02-06T19:12:53.574Z,11.90
2019-02-06T19:15:21.029Z,14.33
2019-02-06T19:17:48.798Z,12.40
2019-02-06T19:20:16.384Z,13.40
2019-02-06T19:22:43.908Z,10.32
2019-02-06T19:25:11.421Z,9.90
2019-02-06T19:27:38.854Z,13.83
2019-02-06T19:30:12.022Z,11.43
2019-02-06T19:32:39.520Z,9.07
2019-02-06T19:35:07.438Z,12.67
2019-02-06T19:37:35.258Z,8.77
2019-02-06T19:40:03.269Z,9.30
2019-02-06T19:42:30.631Z,11.33
2019-02-06T19:44:58.100Z,14.57
2019-02-06T19:47:28.613Z,11.60
2019-02-06T19:49:54.596Z,8.80
2019-02-06T19:52:21.918Z,8.70
2019-02-06T19:54:49.294Z,6.67
2019-02-06T19:57:16.941Z,10.73
2019-02-06T19:59:44.310Z,12.73
2019-02-06T20:02:13.510Z,9.43
2019-02-06T20:04:43.160Z,11.27
2019-02-06T20:07:10.488Z,11.73
2019-02-06T20:09:37.902Z,10.85
2019-02-06T20:12:05.306Z,10.60
2019-02-06T20:14:32.844Z,12.20
2019-02-06T20:17:00.593Z,11.67
2019-02-06T20:19:27.924Z,12.70
2019-02-06T20:21:55.282Z,16.07
2019-02-06T20:24:22.628Z,12.93
2019-02-06T20:26:50.095Z,11.70
2019-02-06T20:29:21.322Z,13.77
2019-02-06T20:31:48.609Z,13.62
2019-02-06T20:34:16.203Z,12.40
2019-02-06T20:36:43.860Z,12.23
2019-02-06T20:39:11.181Z,14.17
2019-02-06T20:41:38.687Z,15.83
2019-02-06T20:44:06.134Z,14.83
2019-02-06T20:46:33.614Z,13.93
2019-02-06T20:49:01.064Z,12.97
2019-02-06T20:51:28.468Z,12.57
2019-02-06T20:53:55.899Z,15.78
2019-02-06T20:56:23.302Z,14.10
2019-02-06T20:58:50.745Z,13.93
2019-02-06T21:01:18.276Z,16.60
2019-02-06T21:03:46.944Z,16.07
2019-02-06T21:06:14.271Z,12.87
2019-02-06T21:08:41.649Z,16.77
2019-02-06T21:11:09.022Z,16.95
2019-02-06T21:13:36.240Z,16.20
2019-02-06T21:16:04.081Z,16.95
2019-02-06T21:18:31.358Z,15.63
2019-02-06T21:20:58.825Z,16.63
2019-02-06T21:23:26.228Z,15.47
2019-02-06T21:25:53.474Z,19.45
2019-02-06T21:28:23.549Z,18.23
2019-02-06T21:30:50.996Z,16.20
2019-02-06T21:33:18.557Z,20.00
2019-02-06T21:35:45.822Z,18.98
2019-02-06T21:38:13.187Z,18.87
2019-02-06T21:40:40.438Z,18.25
2019-02-06T21:43:07.839Z,21.87
2019-02-06T21:45:35.185Z,18.75
2019-02-06T21:48:02.445Z,19.83
2019-02-06T21:50:29.784Z,24.37
2019-02-06T21:52:57.324Z,18.00
2019-02-06T21:55:24.697Z,24.87
2019-02-06T21:57:52.149Z,20.52
2019-02-06T22:00:21.490Z,19.95
2019-02-06T22:02:48.946Z,21.37
2019-02-06T22:05:16.305Z,21.50
2019-02-06T22:07:43.570Z,21.33
2019-02-06T22:10:11.481Z,19.52
2019-02-06T22:12:38.854Z,20.68
2019-02-06T22:15:09.857Z,21.48
2019-02-06T22:17:37.257Z,22.22
2019-02-06T22:20:04.868Z,21.52
2019-02-06T22:22:32.089Z,18.92
2019-02-06T22:24:59.876Z,20.70
2019-02-06T22:27:27.214Z,21.95
2019-02-06T22:29:54.537Z,22.55
2019-02-06T22:32:22.000Z,21.40
2019-02-06T22:34:49.324Z,19.90
2019-02-06T22:37:16.606Z,20.72
2019-02-06T22:39:43.858Z,21.87
2019-02-06T22:42:11.172Z,21.15
2019-02-06T22:44:38.499Z,19.73
2019-02-06T22:47:05.852Z,22.67
2019-02-06T22:49:33.088Z,21.93
2019-02-06T22:52:00.316Z,21.27
2019-02-06T22:54:27.659Z,23.40
2019-02-06T22:56:55.070Z,20.48
2019-02-06T22:59:22.382Z,19.37
2019-02-06T23:01:52.554Z,20.20
2019-02-06T23:04:19.920Z,20.82
2019-02-06T23:06:47.244Z,22.45
2019-02-06T23:09:14.785Z,21.20
2019-02-06T23:11:42.122Z,20.52
2019-02-06T23:14:17.109Z,20.15
2019-02-06T23:16:38.586Z,17.85
2019-02-06T23:19:05.818Z,18.62
2019-02-06T23:21:33.159Z,20.90
2019-02-06T23:24:00.508Z,21.62
2019-02-06T23:26:27.925Z,20.55
2019-02-06T23:28:55.260Z,22.30
2019-02-06T23:31:22.644Z,20.17
2019-02-06T23:33:50.036Z,17.02
2019-02-06T23:36:17.466Z,23.65
2019-02-06T23:38:44.994Z,22.35
2019-02-06T23:41:12.208Z,20.95
2019-02-06T23:43:39.550Z,20.02
2019-02-06T23:46:06.895Z,20.75
2019-02-06T23:48:35.040Z,25.25
2019-02-06T23:51:02.454Z,15.88
2019-02-06T23:53:29.708Z,17.23
2019-02-06T23:55:57.018Z,22.22
2019-02-06T23:58:24.231Z,17.50
